Time;durP1;ratioP1;P1;durP2;ratioP2;P2;SDS_P1;SDS_P2;PMS_P1;PMS_P2;Temp;Humidity;BMP_temperature;BMP_pressure;BME280_temperature;BME280_humidity;BME280_pressure;Samples;Min_cycle;Max_cycle;Signal;HPM_P1;HPM_P2
2022/09/11 00:00:29;;;;;;;50.78;29.90;;;14.00;99.90;;;;;;4991483;28;20413;-91
2022/09/11 00:02:54;;;;;;;50.00;28.83;;;13.90;99.90;;;;;;4970525;28;20066;-90
2022/09/11 00:05:20;;;;;;;44.58;27.80;;;13.80;99.90;;;;;;4993147;28;20497;-91
2022/09/11 00:07:46;;;;;;;48.72;28.48;;;13.80;99.90;;;;;;4959970;28;20519;-90
2022/09/11 00:10:16;;;;;;;44.78;27.35;;;13.80;99.90;;;;;;4963518;28;20177;-90
2022/09/11 00:12:42;;;;;;;59.90;28.70;;;13.90;99.90;;;;;;4967912;28;20042;-90
2022/09/11 00:15:09;;;;;;;135.43;30.92;;;13.80;99.90;;;;;;4960708;28;20046;-90
2022/09/11 00:17:35;;;;;;;41.65;25.33;;;13.90;99.90;;;;;;4993209;28;20030;-90
2022/09/11 00:20:01;;;;;;;36.78;24.40;;;13.80;99.90;;;;;;4992946;28;20117;-89
2022/09/11 00:22:27;;;;;;;42.28;26.17;;;13.70;99.90;;;;;;4962333;28;20044;-90
2022/09/11 00:24:53;;;;;;;695.47;52.13;;;13.70;99.90;;;;;;4965304;28;20391;-91
2022/09/11 00:27:19;;;;;;;188.50;27.73;;;13.40;99.90;;;;;;4967392;28;20070;-90
2022/09/11 00:29:45;;;;;;;383.00;33.55;;;13.50;99.90;;;;;;4993058;28;20066;-91
2022/09/11 00:32:11;;;;;;;49.20;29.33;;;13.40;99.90;;;;;;4987082;28;20125;-91
2022/09/11 00:34:38;;;;;;;49.03;28.67;;;13.70;99.90;;;;;;4993417;28;22367;-89
2022/09/11 00:37:04;;;;;;;93.38;24.33;;;13.70;99.90;;;;;;4968051;28;20526;-91
2022/09/11 00:39:29;;;;;;;51.95;29.35;;;13.50;99.90;;;;;;4986107;28;20181;-91
2022/09/11 00:41:57;;;;;;;34.35;23.40;;;13.60;99.90;;;;;;4996360;28;20149;-90
2022/09/11 00:44:26;;;;;;;29.77;20.30;;;13.70;99.90;;;;;;5008467;28;20046;-91
2022/09/11 00:46:55;;;;;;;56.10;29.95;;;13.50;99.90;;;;;;4967807;28;20039;-91
2022/09/11 00:49:31;;;;;;;43.70;27.38;;;13.60;99.90;;;;;;4997257;28;20458;-90
2022/09/11 00:52:07;;;;;;;40.90;26.05;;;13.60;99.90;;;;;;4989031;28;20039;-91
2022/09/11 00:54:40;;;;;;;68.13;31.50;;;13.60;99.90;;;;;;4991435;28;20046;-90
2022/09/11 00:57:08;;;;;;;187.45;32.40;;;13.70;99.90;;;;;;4995565;28;20069;-92
2022/09/11 00:59:36;;;;;;;196.02;30.42;;;13.70;99.90;;;;;;4973602;28;20037;-90
2022/09/11 01:02:02;;;;;;;258.17;33.45;;;13.70;99.90;;;;;;4972714;28;20025;-90
2022/09/11 01:04:28;;;;;;;37.97;25.65;;;13.70;99.90;;;;;;4975782;28;20038;-89
2022/09/11 01:06:56;;;;;;;46.55;26.50;;;13.60;99.90;;;;;;4992317;28;20038;-90
2022/09/11 01:09:25;;;;;;;33.45;21.95;;;13.60;99.90;;;;;;4990850;28;20064;-90
2022/09/11 01:12:03;;;;;;;40.70;23.73;;;13.50;99.90;;;;;;4966972;28;20274;-90
2022/09/11 01:14:53;;;;;;;38.20;24.92;;;13.30;99.90;;;;;;4972426;28;20045;-91
2022/09/11 01:17:34;;;;;;;38.17;24.80;;;13.40;99.90;;;;;;4968503;28;20042;-91
2022/09/11 01:20:37;;;;;;;33.33;22.23;;;13.40;99.90;;;;;;4966047;28;20038;-91
2022/09/11 01:23:32;;;;;;;47.42;27.45;;;13.40;99.90;;;;;;4991666;28;20093;-90
2022/09/11 01:26:39;;;;;;;50.00;30.70;;;13.60;99.90;;;;;;4991206;28;20055;-91
2022/09/11 01:29:23;;;;;;;41.97;27.20;;;13.70;99.90;;;;;;4972526;28;20038;-90
2022/09/11 01:31:56;;;;;;;42.40;26.63;;;13.50;99.90;;;;;;4963265;28;20046;-90
2022/09/11 01:34:35;;;;;;;49.78;28.85;;;13.40;99.90;;;;;;4990146;28;20022;-91
2022/09/11 01:37:13;;;;;;;33.65;22.67;;;13.40;99.90;;;;;;4963439;28;20107;-89
2022/09/11 01:39:47;;;;;;;27.67;19.13;;;13.50;99.90;;;;;;4995843;28;20102;-90
2022/09/11 01:42:19;;;;;;;40.38;26.85;;;13.30;99.90;;;;;;4967446;28;20047;-90
2022/09/11 01:44:51;;;;;;;47.53;24.65;;;13.40;99.90;;;;;;4992162;28;20209;-92
2022/09/11 01:47:19;;;;;;;50.83;20.70;;;13.30;99.90;;;;;;4963808;28;20050;-90
2022/09/11 01:50:01;;;;;;;52.00;27.08;;;13.40;99.90;;;;;;4991126;28;20429;-89
2022/09/11 01:52:49;;;;;;;57.70;23.13;;;13.30;99.90;;;;;;4959562;28;20102;-89
2022/09/11 01:55:24;;;;;;;47.47;26.35;;;13.20;99.90;;;;;;4962153;28;20501;-90
2022/09/11 01:57:54;;;;;;;59.70;34.75;;;13.20;99.90;;;;;;4988567;28;20133;-91
2022/09/11 02:00:21;;;;;;;57.60;33.38;;;13.70;99.90;;;;;;4990111;28;20038;-91
2022/09/11 02:03:34;;;;;;;58.65;26.40;;;13.60;99.90;;;;;;4969445;28;20330;-91
2022/09/11 02:06:07;;;;;;;54.97;29.90;;;13.40;99.90;;;;;;4992745;28;20085;-90
2022/09/11 02:08:57;;;;;;;51.47;30.98;;;13.60;99.90;;;;;;4963183;28;20038;-90
2022/09/11 02:11:23;;;;;;;48.35;27.92;;;13.40;99.90;;;;;;4988850;28;20054;-90
2022/09/11 02:14:15;;;;;;;41.20;26.23;;;13.40;99.90;;;;;;4968972;28;20140;-89
2022/09/11 02:17:08;;;;;;;36.72;24.80;;;13.30;99.90;;;;;;4989423;28;20035;-91
2022/09/11 02:19:34;;;;;;;49.95;28.77;;;13.20;99.90;;;;;;4974044;28;20088;-91
2022/09/11 02:22:00;;;;;;;48.95;29.60;;;13.20;99.90;;;;;;4978085;28;20033;-91
2022/09/11 02:24:27;;;;;;;52.80;29.50;;;13.30;99.90;;;;;;4966803;28;20450;-90
2022/09/11 02:27:19;;;;;;;47.13;30.30;;;13.40;99.90;;;;;;4970589;28;20093;-92
2022/09/11 02:29:45;;;;;;;44.45;28.38;;;13.20;99.90;;;;;;4989381;28;20127;-92
2022/09/11 02:32:11;;;;;;;44.38;21.80;;;13.30;99.90;;;;;;4982092;28;20465;-89
2022/09/11 02:34:39;;;;;;;33.85;21.88;;;13.00;99.90;;;;;;4996737;28;20049;-91
2022/09/11 02:37:35;;;;;;;34.20;23.60;;;13.10;99.90;;;;;;4994241;28;20047;-90
2022/09/11 02:40:15;;;;;;;35.33;22.50;;;13.00;99.90;;;;;;4970420;28;20030;-90
2022/09/11 02:42:59;;;;;;;30.42;22.30;;;12.90;99.90;;;;;;4996677;28;20050;-90
2022/09/11 02:45:34;;;;;;;36.80;23.20;;;12.90;99.90;;;;;;4993356;28;20069;-91
2022/09/11 02:48:10;;;;;;;;;;;13.00;99.90;;;;;;4973003;28;20124;-91
2022/09/11 02:50:57;;;;;;;26.75;17.83;;;13.00;99.90;;;;;;5014730;28;20350;-89
2022/09/11 02:53:23;;;;;;;32.78;21.30;;;12.80;99.90;;;;;;4989516;28;20042;-90
2022/09/11 02:55:49;;;;;;;28.02;18.73;;;12.90;99.90;;;;;;4995918;28;20049;-90
2022/09/11 02:58:21;;;;;;;29.65;19.83;;;12.80;99.90;;;;;;4994783;28;20482;-90
2022/09/11 03:00:47;;;;;;;100.28;27.23;;;12.90;99.90;;;;;;4969903;28;20053;-89
2022/09/11 03:03:14;;;;;;;34.60;23.02;;;12.90;99.90;;;;;;4988684;28;20252;-90
2022/09/11 03:05:40;;;;;;;92.47;27.92;;;13.00;99.90;;;;;;4996460;28;20038;-90
2022/09/11 03:08:07;;;;;;;30.83;22.23;;;13.10;99.90;;;;;;4970244;28;20049;-90
2022/09/11 03:10:33;;;;;;;31.35;17.50;;;13.10;99.90;;;;;;4996780;28;20042;-90
2022/09/11 03:12:59;;;;;;;33.88;19.98;;;12.80;99.90;;;;;;4998974;28;20101;-90
2022/09/11 03:15:25;;;;;;;142.18;24.95;;;12.70;99.90;;;;;;4969292;28;20129;-89
2022/09/11 03:17:51;;;;;;;32.50;16.35;;;12.80;99.90;;;;;;4992178;28;20082;-91
2022/09/11 03:20:19;;;;;;;29.73;22.15;;;12.70;99.90;;;;;;4996624;28;20430;-92
2022/09/11 03:22:44;;;;;;;23.58;17.85;;;12.80;99.90;;;;;;4994537;28;20046;-91
2022/09/11 03:25:10;;;;;;;213.75;28.38;;;12.90;99.90;;;;;;4977021;28;20177;-90
2022/09/11 03:27:40;;;;;;;57.00;18.25;;;12.90;99.90;;;;;;4976190;28;20046;-91
2022/09/11 03:30:07;;;;;;;80.40;25.33;;;12.80;99.90;;;;;;5008406;28;20092;-91
2022/09/11 03:32:33;;;;;;;19.83;15.20;;;12.70;99.90;;;;;;4983309;28;20038;-90
2022/09/11 03:35:02;;;;;;;61.05;18.98;;;12.80;99.90;;;;;;5000001;28;20113;-91
2022/09/11 03:37:27;;;;;;;92.20;21.13;;;12.90;99.90;;;;;;4964488;28;20054;-90
2022/09/11 03:39:53;;;;;;;122.32;23.17;;;13.00;99.90;;;;;;4995020;28;20039;-90
2022/09/11 03:42:19;;;;;;;122.55;25.85;;;12.80;99.90;;;;;;4999990;28;20458;-90
2022/09/11 03:44:45;;;;;;;99.30;24.67;;;13.00;99.90;;;;;;4991944;28;20043;-88
2022/09/11 03:47:12;;;;;;;39.90;17.98;;;12.90;99.90;;;;;;4974593;28;20093;-90
2022/09/11 03:49:38;;;;;;;102.90;22.13;;;12.90;99.90;;;;;;4970644;28;20058;-90
2022/09/11 03:52:04;;;;;;;23.67;17.63;;;12.80;99.90;;;;;;4966881;28;20047;-91
2022/09/11 03:54:31;;;;;;;69.53;17.17;;;12.70;99.90;;;;;;4986516;28;20085;-90
2022/09/11 03:56:57;;;;;;;55.38;17.42;;;12.70;99.90;;;;;;4997155;28;20234;-91
2022/09/11 03:59:24;;;;;;;26.77;16.80;;;12.60;99.90;;;;;;4963676;28;20027;-90
2022/09/11 04:01:50;;;;;;;19.90;15.10;;;12.50;99.90;;;;;;4995208;28;20042;-92
2022/09/11 04:04:16;;;;;;;34.58;18.27;;;12.50;99.90;;;;;;4975758;28;20043;-90
2022/09/11 04:06:43;;;;;;;19.50;14.38;;;12.50;99.90;;;;;;4992801;28;20134;-91
2022/09/11 04:09:09;;;;;;;78.30;20.23;;;12.40;99.90;;;;;;4993174;28;20062;-90
2022/09/11 04:11:38;;;;;;;68.22;20.30;;;12.50;99.90;;;;;;4992624;28;20657;-90
2022/09/11 04:14:05;;;;;;;166.30;23.13;;;12.60;99.90;;;;;;4968983;28;20060;-91
2022/09/11 04:16:32;;;;;;;58.67;18.90;;;12.60;99.90;;;;;;5015346;28;20042;-91
2022/09/11 04:19:01;;;;;;;155.82;21.75;;;12.70;99.90;;;;;;4966373;28;20141;-91
2022/09/11 04:21:27;;;;;;;176.30;22.90;;;12.90;99.90;;;;;;4987135;28;20049;-91
2022/09/11 04:23:58;;;;;;;123.78;20.88;;;12.80;99.90;;;;;;4991179;28;20050;-92
2022/09/11 04:26:27;;;;;;;98.40;20.60;;;13.00;99.90;;;;;;4962698;28;20070;-92
2022/09/11 04:28:52;;;;;;;75.47;22.48;;;13.00;99.90;;;;;;4967757;28;20038;-90
2022/09/11 04:31:19;;;;;;;49.00;20.02;;;13.10;99.90;;;;;;4967273;28;20045;-91
2022/09/11 04:33:46;;;;;;;85.30;22.20;;;13.00;99.90;;;;;;4994296;28;20065;-92
2022/09/11 04:36:16;;;;;;;56.42;20.40;;;13.10;99.90;;;;;;4969642;28;20042;-92
2022/09/11 04:38:45;;;;;;;40.38;20.25;;;13.10;99.90;;;;;;4965037;28;20486;-90
2022/09/11 04:41:15;;;;;;;34.60;19.08;;;13.00;99.90;;;;;;4960574;28;20034;-93
2022/09/11 04:43:41;;;;;;;16.20;14.20;;;12.90;99.90;;;;;;4990473;28;20045;-90
2022/09/11 04:46:13;;;;;;;120.68;22.45;;;12.90;99.90;;;;;;4965472;28;20041;-91
2022/09/11 04:48:46;;;;;;;19.30;16.08;;;12.90;99.90;;;;;;4982605;28;20050;-91
2022/09/11 04:51:18;;;;;;;18.08;15.35;;;12.80;99.90;;;;;;4971506;28;20272;-91
2022/09/11 04:53:44;;;;;;;22.33;15.15;;;12.60;99.90;;;;;;4968102;28;20073;-91
2022/09/11 04:56:13;;;;;;;17.50;13.77;;;12.60;99.90;;;;;;4998928;28;20149;-91
2022/09/11 04:58:41;;;;;;;17.85;14.70;;;12.70;99.90;;;;;;4967066;28;20066;-92
2022/09/11 05:01:13;;;;;;;23.88;15.48;;;12.50;99.90;;;;;;4983984;28;20057;-90
2022/09/11 05:03:39;;;;;;;39.55;16.67;;;12.60;99.90;;;;;;4967806;28;20046;-92
2022/09/11 05:06:06;;;;;;;26.30;17.70;;;12.60;99.90;;;;;;4964373;28;20132;-91
2022/09/11 05:08:32;;;;;;;19.88;15.05;;;12.70;99.90;;;;;;4999225;28;20046;-91
2022/09/11 05:11:04;;;;;;;104.13;20.67;;;12.60;99.90;;;;;;4966661;28;20049;-92
2022/09/11 05:13:30;;;;;;;30.88;16.50;;;12.60;99.90;;;;;;4983139;28;20042;-91
2022/09/11 05:16:09;;;;;;;15.40;13.23;;;12.70;99.90;;;;;;5009178;28;20135;-91
2022/09/11 05:18:36;;;;;;;17.48;14.20;;;12.70;99.90;;;;;;4965179;28;20113;-91
2022/09/11 05:21:04;;;;;;;17.15;13.30;;;12.70;99.90;;;;;;4967116;28;20057;-90
2022/09/11 05:23:33;;;;;;;20.63;15.05;;;12.80;99.90;;;;;;4990661;28;20168;-91
2022/09/11 05:26:02;;;;;;;63.97;20.08;;;12.80;99.90;;;;;;4972117;28;20605;-92
2022/09/11 05:28:28;;;;;;;26.45;18.52;;;12.90;99.90;;;;;;4980850;28;20088;-91
2022/09/11 05:30:55;;;;;;;70.93;22.08;;;12.90;99.90;;;;;;4990508;28;20034;-90
2022/09/11 05:33:23;;;;;;;65.28;21.00;;;12.80;99.90;;;;;;4969646;28;20777;-91
2022/09/11 05:35:49;;;;;;;114.03;19.58;;;12.90;99.90;;;;;;4970795;28;20049;-90
2022/09/11 05:38:16;;;;;;;69.80;21.38;;;13.00;99.90;;;;;;4986272;28;20046;-90
2022/09/11 05:40:44;;;;;;;67.22;21.20;;;13.00;99.90;;;;;;4968998;28;20061;-91
2022/09/11 05:43:10;;;;;;;35.72;21.20;;;13.10;99.90;;;;;;4969847;28;20034;-90
2022/09/11 05:45:35;;;;;;;32.42;20.75;;;13.50;99.90;;;;;;4990420;28;20058;-91
2022/09/11 05:48:02;;;;;;;27.08;20.25;;;13.50;99.90;;;;;;4971642;28;20482;-91
2022/09/11 05:50:30;;;;;;;64.90;21.13;;;13.50;99.90;;;;;;4992523;28;20141;-91
2022/09/11 05:52:56;;;;;;;50.97;16.27;;;13.60;99.90;;;;;;4974945;28;20046;-91
2022/09/11 05:55:22;;;;;;;31.80;21.98;;;13.50;99.90;;;;;;4972202;28;20104;-91
2022/09/11 05:57:50;;;;;;;39.25;21.65;;;13.70;99.90;;;;;;4975050;28;20125;-91
2022/09/11 06:00:16;;;;;;;28.67;20.10;;;13.60;99.90;;;;;;4996435;28;20031;-92
2022/09/11 06:02:41;;;;;;;33.05;22.35;;;13.70;99.90;;;;;;4976349;28;20030;-90
2022/09/11 06:05:07;;;;;;;28.10;20.38;;;13.90;99.90;;;;;;4992662;28;20034;-91
2022/09/11 06:07:34;;;;;;;25.27;19.50;;;14.00;99.90;;;;;;4978280;28;20050;-92
2022/09/11 06:10:00;;;;;;;31.98;21.60;;;14.00;99.90;;;;;;4969133;28;20363;-92
2022/09/11 06:12:26;;;;;;;29.35;22.27;;;14.00;99.90;;;;;;4972886;28;20057;-91
2022/09/11 06:14:51;;;;;;;29.77;21.48;;;14.30;99.90;;;;;;4973238;28;20475;-91
2022/09/11 06:17:17;;;;;;;26.92;20.85;;;14.30;99.90;;;;;;4978421;28;20062;-91
2022/09/11 06:19:43;;;;;;;28.58;21.05;;;14.20;99.90;;;;;;4973091;28;20105;-90
2022/09/11 06:22:09;;;;;;;27.67;19.33;;;14.50;99.90;;;;;;4993572;28;20483;-91
2022/09/11 06:24:35;;;;;;;27.92;20.48;;;14.50;99.90;;;;;;4974252;28;20068;-90
2022/09/11 06:27:01;;;;;;;23.92;19.52;;;14.70;99.90;;;;;;4972821;28;20241;-92
2022/09/11 06:29:27;;;;;;;25.35;20.15;;;14.60;99.90;;;;;;4968031;28;20442;-91
2022/09/11 06:31:53;;;;;;;24.40;18.05;;;14.80;99.90;;;;;;4971630;28;20049;-91
2022/09/11 06:34:18;;;;;;;22.08;19.02;;;14.70;99.90;;;;;;4973844;28;20630;-90
2022/09/11 06:36:45;;;;;;;23.23;19.75;;;14.90;99.90;;;;;;4972224;28;20145;-91
2022/09/11 06:39:10;;;;;;;23.40;19.08;;;14.90;99.90;;;;;;4995590;28;20050;-91
2022/09/11 06:41:36;;;;;;;20.40;17.98;;;15.00;99.90;;;;;;5002700;28;20046;-91
2022/09/11 06:44:02;;;;;;;22.25;19.05;;;15.20;99.90;;;;;;4974547;28;20029;-91
2022/09/11 06:46:28;;;;;;;22.55;18.00;;;15.10;99.90;;;;;;4981583;28;20105;-91
2022/09/11 06:48:54;;;;;;;24.85;19.25;;;15.20;99.90;;;;;;4970550;28;20528;-91
2022/09/11 06:51:21;;;;;;;25.10;18.63;;;15.40;99.90;;;;;;4989619;28;20123;-91
2022/09/11 06:53:51;;;;;;;22.27;19.20;;;15.30;99.90;;;;;;4996152;28;20046;-93
2022/09/11 06:56:17;;;;;;;20.15;17.95;;;15.40;99.90;;;;;;4970546;28;20137;-92
2022/09/11 06:58:44;;;;;;;22.52;18.27;;;15.50;99.90;;;;;;4968029;28;20038;-93
2022/09/11 07:01:15;;;;;;;22.35;18.30;;;15.50;99.90;;;;;;4971528;28;20042;-91
2022/09/11 07:03:46;;;;;;;22.15;17.85;;;15.70;99.90;;;;;;4971230;28;20038;-92
2022/09/11 07:06:17;;;;;;;22.73;18.40;;;16.00;99.90;;;;;;4975238;28;20055;-93
2022/09/11 07:08:43;;;;;;;21.50;18.17;;;16.10;99.90;;;;;;4998295;28;20208;-92
2022/09/11 07:11:11;;;;;;;22.52;18.23;;;16.30;99.90;;;;;;4994610;28;20062;-92
2022/09/11 07:13:38;;;;;;;20.30;17.67;;;16.20;99.90;;;;;;4997564;28;20508;-92
2022/09/11 07:16:06;;;;;;;22.73;17.55;;;16.10;99.90;;;;;;4993714;28;20041;-92
2022/09/11 07:18:41;;;;;;;22.90;17.48;;;16.40;99.90;;;;;;4964798;28;20045;-93
2022/09/11 07:21:12;;;;;;;21.15;17.05;;;16.30;99.90;;;;;;4979167;28;20042;-93
2022/09/11 07:23:39;;;;;;;22.02;18.52;;;16.60;99.90;;;;;;4970827;28;20043;-91
2022/09/11 07:26:08;;;;;;;19.33;17.08;;;16.50;99.90;;;;;;4974842;28;20622;-92
2022/09/11 07:28:34;;;;;;;19.02;16.25;;;16.70;99.90;;;;;;4973451;28;20137;-93
2022/09/11 07:31:15;;;;;;;20.05;16.40;;;16.90;99.90;;;;;;4976901;28;20362;-93
2022/09/11 07:33:47;;;;;;;18.83;16.50;;;17.10;99.90;;;;;;4984586;28;20058;-91
2022/09/11 07:36:15;;;;;;;20.17;18.02;;;16.90;99.90;;;;;;4972548;28;20041;-92
2022/09/11 07:38:43;;;;;;;20.92;16.48;;;17.10;99.90;;;;;;4982962;28;20038;-91
2022/09/11 07:41:10;;;;;;;18.20;16.17;;;17.00;99.90;;;;;;4985483;28;20053;-85
2022/09/11 07:43:37;;;;;;;18.52;16.38;;;17.20;99.90;;;;;;4981583;28;20544;-85
2022/09/11 07:46:04;;;;;;;18.08;15.93;;;17.40;99.90;;;;;;4985723;28;20490;-85
2022/09/11 07:48:30;;;;;;;16.95;14.60;;;17.60;99.90;;;;;;4984234;28;20169;-86
2022/09/11 07:51:03;;;;;;;16.23;14.10;;;17.40;99.90;;;;;;5008759;28;20102;-85
2022/09/11 07:53:44;;;;;;;16.95;13.07;;;17.60;99.90;;;;;;4982453;28;20054;-86
2022/09/11 07:56:18;;;;;;;16.10;13.60;;;17.90;99.90;;;;;;4985030;28;20584;-85
2022/09/11 07:58:45;;;;;;;13.90;12.18;;;17.70;99.90;;;;;;5002267;28;20551;-86
2022/09/11 08:01:14;;;;;;;13.65;12.25;;;17.80;99.90;;;;;;4985871;28;20045;-86
2022/09/11 08:03:41;;;;;;;16.77;12.10;;;17.90;99.90;;;;;;4985693;28;20347;-85
2022/09/11 08:06:10;;;;;;;13.48;11.18;;;17.80;99.90;;;;;;5002222;28;20090;-85
2022/09/11 08:08:37;;;;;;;12.85;8.07;;;18.00;99.90;;;;;;4983182;28;20055;-86
2022/09/11 08:11:08;;;;;;;11.10;7.40;;;18.20;99.90;;;;;;4990044;28;20450;-86
2022/09/11 08:13:34;;;;;;;10.50;7.43;;;18.40;99.90;;;;;;4983796;28;20469;-85
2022/09/11 08:16:01;;;;;;;9.95;7.63;;;18.30;99.90;;;;;;5012374;28;20134;-86
2022/09/11 08:18:28;;;;;;;11.07;8.55;;;18.50;99.90;;;;;;4977922;28;20054;-85
2022/09/11 08:21:04;;;;;;;8.88;7.28;;;18.50;99.90;;;;;;4983168;28;20042;-86
2022/09/11 08:23:31;;;;;;;6.60;4.88;;;18.80;99.90;;;;;;4971839;28;20485;-86
2022/09/11 08:26:12;;;;;;;7.20;5.15;;;18.70;99.90;;;;;;4962329;28;20062;-85
2022/09/11 08:28:39;;;;;;;10.20;5.55;;;18.70;99.90;;;;;;4978778;28;20085;-85
2022/09/11 08:31:05;;;;;;;8.13;5.30;;;18.80;99.90;;;;;;4981521;28;20105;-85
2022/09/11 08:33:32;;;;;;;9.32;6.00;;;18.90;99.90;;;;;;4984685;28;20096;-85
2022/09/11 08:35:58;;;;;;;10.55;5.25;;;19.30;99.90;;;;;;4976322;28;20126;-86
2022/09/11 08:38:24;;;;;;;9.55;5.85;;;19.10;99.90;;;;;;4964737;28;20038;-85
2022/09/11 08:40:50;;;;;;;8.75;5.50;;;19.30;99.90;;;;;;4994499;28;20073;-85
2022/09/11 08:43:32;;;;;;;7.43;5.10;;;19.50;99.90;;;;;;4971147;28;20120;-86
2022/09/11 08:46:08;;;;;;;9.27;4.32;;;19.40;99.90;;;;;;5002677;28;20046;-85
2022/09/11 08:48:58;;;;;;;6.22;4.38;;;19.60;99.90;;;;;;4981299;28;20050;-85
2022/09/11 08:51:27;;;;;;;6.40;2.60;;;19.80;99.90;;;;;;4984358;28;20061;-85
2022/09/11 08:53:57;;;;;;;4.53;2.65;;;19.50;99.90;;;;;;4980302;28;20453;-85
2022/09/11 08:56:28;;;;;;;6.50;2.58;;;19.90;99.90;;;;;;5008838;28;20125;-85
2022/09/11 08:59:40;;;;;;;6.13;2.70;;;20.30;99.90;;;;;;4982077;28;20078;-84
2022/09/11 09:02:06;;;;;;;7.10;2.80;;;20.50;99.90;;;;;;4966005;28;20050;-86
2022/09/11 09:05:13;;;;;;;4.78;2.00;;;20.40;89.00;;;;;;4963329;28;20041;-86
2022/09/11 09:07:56;;;;;;;3.70;2.25;;;20.40;99.90;;;;;;4979656;28;20535;-84
2022/09/11 09:10:37;;;;;;;5.80;2.45;;;20.50;99.90;;;;;;4965449;28;20553;-84
2022/09/11 09:13:21;;;;;;;2.80;2.33;;;20.60;93.20;;;;;;4992477;28;20132;-85
2022/09/11 09:16:03;;;;;;;3.70;2.30;;;20.60;1.00;;;;;;4961811;28;20050;-87
2022/09/11 09:18:56;;;;;;;6.35;2.35;;;20.40;1.00;;;;;;5006564;28;20053;-84
2022/09/11 09:21:34;;;;;;;3.08;2.10;;;20.50;99.90;;;;;;4978152;28;20034;-83
2022/09/11 09:24:03;;;;;;;5.15;2.80;;;20.80;36.50;;;;;;4984781;28;20060;-84
2022/09/11 09:26:38;;;;;;;4.40;2.67;;;20.90;26.80;;;;;;4972553;28;20116;-83
2022/09/11 09:29:13;;;;;;;4.07;2.38;;;20.80;1.00;;;;;;4987577;28;20631;-83
2022/09/11 09:31:40;;;;;;;;;;;20.90;3.90;;;;;;4980956;28;20050;-83
2022/09/11 09:34:20;;;;;;;3.05;1.95;;;21.20;99.90;;;;;;4965341;28;19925;-84
2022/09/11 09:36:55;;;;;;;3.78;2.75;;;21.50;1.00;;;;;;4980934;28;20126;-83
2022/09/11 09:39:22;;;;;;;4.55;2.38;;;21.50;6.40;;;;;;4980828;28;20534;-83
2022/09/11 09:42:00;;;;;;;3.42;2.40;;;21.50;1.00;;;;;;5002455;28;20049;-83
2022/09/11 09:44:33;;;;;;;5.57;2.67;;;21.70;99.90;;;;;;5001656;28;20056;-82
2022/09/11 09:46:58;;;;;;;3.15;2.05;;;21.70;99.90;;;;;;4981384;28;20061;-83
2022/09/11 09:49:31;;;;;;;3.60;2.00;;;21.80;1.00;;;;;;4960200;28;20031;-83
2022/09/11 09:52:02;;;;;;;3.30;1.90;;;22.10;99.90;;;;;;4982727;28;20132;-83
2022/09/11 09:54:32;;;;;;;4.90;2.00;;;22.00;99.90;;;;;;4975374;28;20101;-83
2022/09/11 09:57:03;;;;;;;4.55;1.90;;;22.50;1.00;;;;;;4986347;28;20081;-84
2022/09/11 09:59:52;;;;;;;4.57;2.00;;;22.30;99.90;;;;;;4980136;28;20045;-83
2022/09/11 10:02:41;;;;;;;3.30;1.80;;;22.70;99.90;;;;;;4982042;28;20061;-84
2022/09/11 10:05:28;;;;;;;2.30;1.70;;;23.10;99.90;;;;;;4989465;28;20394;-84
2022/09/11 10:08:04;;;;;;;4.20;1.65;;;22.90;99.90;;;;;;4951994;28;20074;-83
2022/09/11 10:10:35;;;;;;;4.07;2.15;;;23.20;99.90;;;;;;4981874;28;20042;-84
2022/09/11 10:13:13;;;;;;;4.78;1.90;;;23.00;99.90;;;;;;4978260;28;20109;-84
2022/09/11 10:15:39;;;;;;;3.97;1.70;;;23.40;99.90;;;;;;5003257;28;20058;-84
2022/09/11 10:18:32;;;;;;;3.60;1.70;;;23.70;99.90;;;;;;4977132;28;20050;-84
2022/09/11 10:21:16;;;;;;;3.80;1.75;;;23.80;99.90;;;;;;5007916;28;20061;-84
2022/09/11 10:23:53;;;;;;;2.65;1.77;;;23.00;99.90;;;;;;4988774;28;20282;-84
2022/09/11 10:26:27;;;;;;;4.75;1.75;;;22.30;99.90;;;;;;4961192;28;20081;-83
2022/09/11 10:28:58;;;;;;;3.20;1.77;;;22.60;45.20;;;;;;4983684;28;20061;-84
2022/09/11 10:31:25;;;;;;;2.08;1.40;;;22.50;99.90;;;;;;4980242;28;20068;-84
2022/09/11 10:33:55;;;;;;;2.05;1.23;;;21.90;99.90;;;;;;4983367;28;20053;-84
2022/09/11 10:36:28;;;;;;;4.47;1.60;;;22.10;99.90;;;;;;4978583;28;20046;-83
2022/09/11 10:39:00;;;;;;;2.45;1.60;;;21.50;1.00;;;;;;5011126;28;20045;-83
2022/09/11 10:41:27;;;;;;;3.03;1.42;;;21.40;1.00;;;;;;4980314;28;20030;-84
2022/09/11 10:44:01;;;;;;;3.17;1.58;;;21.30;99.90;;;;;;4986225;28;20042;-84
2022/09/11 10:46:31;;;;;;;3.05;1.50;;;21.10;1.00;;;;;;4990603;28;20042;-84
2022/09/11 10:49:08;;;;;;;6.07;2.50;;;20.80;98.90;;;;;;4992542;28;20370;-83
2022/09/11 10:51:39;;;;;;;6.07;3.42;;;20.30;95.00;;;;;;4965844;28;20050;-83
2022/09/11 10:54:36;;;;;;;8.32;3.65;;;20.00;1.00;;;;;;4981192;28;20061;-83
2022/09/11 10:57:05;;;;;;;5.88;3.40;;;19.80;99.90;;;;;;4966064;28;20096;-83
2022/09/11 10:59:39;;;;;;;4.82;3.72;;;19.70;45.10;;;;;;4980951;28;20043;-83
2022/09/11 11:02:27;;;;;;;6.55;3.53;;;19.60;99.90;;;;;;4984350;28;20042;-83
2022/09/11 11:04:57;;;;;;;7.78;3.90;;;19.60;1.00;;;;;;5008976;28;20619;-83
2022/09/11 11:07:52;;;;;;;8.73;4.00;;;19.60;99.90;;;;;;4970080;28;20138;-90
2022/09/11 11:10:50;;;;;;;8.32;3.90;;;19.70;77.60;;;;;;4969146;28;20064;-90
2022/09/11 11:13:40;;;;;;;4.65;3.47;;;19.80;55.40;;;;;;4992349;28;20038;-90
2022/09/11 11:16:28;;;;;;;5.68;3.60;;;19.90;1.00;;;;;;4968784;28;20051;-90
2022/09/11 11:19:24;;;;;;;6.30;3.90;;;20.10;99.90;;;;;;4971752;28;20041;-89
2022/09/11 11:22:15;;;;;;;7.30;3.55;;;20.30;99.90;;;;;;4981410;28;20123;-89
2022/09/11 11:25:06;;;;;;;6.05;3.17;;;20.30;99.90;;;;;;4968703;28;20054;-89
2022/09/11 11:27:54;;;;;;;4.40;2.50;;;20.70;99.90;;;;;;4969302;28;20053;-88
2022/09/11 11:30:35;;;;;;;3.95;2.60;;;20.50;99.90;;;;;;5005405;28;20060;-87
2022/09/11 11:33:16;;;;;;;4.88;2.58;;;20.60;99.90;;;;;;4988456;28;20041;-88
2022/09/11 11:35:44;;;;;;;3.10;2.08;;;21.10;1.00;;;;;;5010225;28;20133;-87
2022/09/11 11:38:19;;;;;;;4.72;2.63;;;20.90;99.90;;;;;;4970026;28;20038;-88
2022/09/11 11:40:53;;;;;;;3.45;2.70;;;20.90;1.00;;;;;;4964400;28;20421;-83
2022/09/11 11:43:27;;;;;;;5.18;2.40;;;20.80;10.40;;;;;;4980865;28;20038;-84
2022/09/11 11:46:11;;;;;;;4.05;2.22;;;20.80;99.90;;;;;;4979210;28;20137;-84
2022/09/11 11:48:57;;;;;;;4.90;2.40;;;20.80;99.90;;;;;;5008185;28;20050;-92
2022/09/11 11:51:38;;;;;;;3.58;2.30;;;21.40;1.00;;;;;;5010213;28;20129;-83
2022/09/11 11:54:13;;;;;;;3.05;2.10;;;21.50;99.90;;;;;;4986158;28;20635;-83
2022/09/11 11:56:54;;;;;;;3.38;2.15;;;21.70;99.90;;;;;;4980761;28;20786;-83
2022/09/11 11:59:39;;;;;;;2.95;2.60;;;22.10;69.50;;;;;;4992529;28;20450;-83
2022/09/11 12:02:07;;;;;;;3.17;2.10;;;22.10;99.90;;;;;;4996324;28;20042;-84
2022/09/11 12:04:55;;;;;;;3.22;1.80;;;22.80;1.00;;;;;;4987533;28;20050;-84
2022/09/11 12:07:33;;;;;;;3.25;2.50;;;23.20;1.00;;;;;;4985940;28;20034;-83
2022/09/11 12:10:00;;;;;;;6.60;2.30;;;23.00;94.00;;;;;;5008516;28;20042;-82
2022/09/11 12:12:42;;;;;;;4.43;1.67;;;23.00;99.90;;;;;;4989155;28;20395;-84
2022/09/11 12:15:20;;;;;;;2.75;1.88;;;22.90;99.90;;;;;;4983941;28;20034;-84
2022/09/11 12:18:03;;;;;;;3.03;1.70;;;23.00;99.90;;;;;;4990426;28;20049;-84
2022/09/11 12:20:39;;;;;;;3.72;1.90;;;22.50;99.90;;;;;;4967326;28;20046;-83
2022/09/11 12:23:29;;;;;;;3.03;1.60;;;22.50;99.90;;;;;;4958113;28;20136;-83
2022/09/11 12:26:03;;;;;;;3.42;1.63;;;22.40;99.90;;;;;;4978795;28;20050;-83
2022/09/11 12:28:29;;;;;;;2.20;1.60;;;22.50;99.90;;;;;;4982729;28;20042;-83
2022/09/11 12:31:13;;;;;;;3.05;2.08;;;22.50;99.90;;;;;;5006001;28;20309;-83
2022/09/11 12:33:47;;;;;;;2.95;2.10;;;22.70;1.00;;;;;;4970030;28;20057;-83
2022/09/11 12:36:18;;;;;;;3.22;2.10;;;22.70;99.90;;;;;;4973026;28;20097;-84
2022/09/11 12:38:54;;;;;;;3.83;2.17;;;23.30;99.90;;;;;;4977747;28;20401;-84
2022/09/11 12:41:32;;;;;;;7.65;2.33;;;23.90;99.90;;;;;;4973004;28;20482;-84
2022/09/11 12:44:00;;;;;;;6.72;2.28;;;24.10;99.90;;;;;;4964147;28;20164;-83
2022/09/11 12:46:26;;;;;;;4.85;2.35;;;23.70;1.00;;;;;;4984378;28;20068;-84
2022/09/11 12:49:08;;;;;;;3.70;2.25;;;24.10;99.90;;;;;;4969878;28;20046;-83
2022/09/11 12:51:37;;;;;;;13.30;1.92;;;25.00;99.90;;;;;;4983285;28;20042;-84
2022/09/11 12:54:19;;;;;;;3.65;1.90;;;25.20;1.00;;;;;;4985618;28;20050;-84
2022/09/11 12:56:48;;;;;;;2.75;1.58;;;25.80;1.00;;;;;;5004362;28;20050;-84
2022/09/11 12:59:24;;;;;;;4.70;1.77;;;26.10;1.00;;;;;;5005045;28;20057;-84
2022/09/11 13:01:50;;;;;;;2.50;1.85;;;25.80;99.90;;;;;;4968709;28;20104;-83